createdAt,value
2022-09-23T00:01:19.834Z,12.20
2022-09-23T00:03:49.084Z,11.52
2022-09-23T00:06:19.681Z,11.63
2022-09-23T00:08:49.581Z,12.30
2022-09-23T00:11:20.739Z,13.10
2022-09-23T00:13:49.900Z,15.45
2022-09-23T00:16:20.754Z,12.77
2022-09-23T00:18:50.302Z,12.32
2022-09-23T00:21:19.877Z,14.45
2022-09-23T00:23:47.574Z,12.48
2022-09-23T00:26:18.999Z,14.55
2022-09-23T00:28:47.047Z,13.57
2022-09-23T00:31:20.310Z,13.90
2022-09-23T00:33:47.829Z,15.55
2022-09-23T00:36:16.412Z,13.70
2022-09-23T00:38:45.249Z,11.32
2022-09-23T00:41:15.185Z,13.27
2022-09-23T00:43:47.361Z,11.48
2022-09-23T00:46:20.357Z,14.40
2022-09-23T00:48:51.444Z,14.18
2022-09-23T00:51:23.318Z,12.45
2022-09-23T00:53:52.530Z,11.50
2022-09-23T00:56:22.938Z,13.52
2022-09-23T00:58:51.753Z,15.52
2022-09-23T01:01:20.716Z,14.65
2022-09-23T01:03:49.066Z,14.20
2022-09-23T01:06:16.919Z,14.18
2022-09-23T01:08:47.085Z,13.40
2022-09-23T01:11:23.237Z,12.70
2022-09-23T01:14:16.257Z,13.85
2022-09-23T01:16:46.664Z,13.65
2022-09-23T01:19:48.632Z,17.15
2022-09-23T01:22:51.370Z,14.30
2022-09-23T01:25:28.502Z,14.02
2022-09-23T01:28:17.426Z,13.32
2022-09-23T01:31:06.065Z,13.80
2022-09-23T01:33:40.121Z,13.73
2022-09-23T01:36:28.802Z,14.13
2022-09-23T01:38:58.399Z,14.02
2022-09-23T01:41:34.768Z,15.10
2022-09-23T01:44:06.690Z,16.38
2022-09-23T01:46:54.731Z,17.63
2022-09-23T01:49:49.680Z,15.73
2022-09-23T01:52:25.236Z,15.10
2022-09-23T01:55:03.450Z,13.10
2022-09-23T01:57:35.370Z,15.20
2022-09-23T02:00:14.102Z,15.93
2022-09-23T02:02:57.206Z,14.80
2022-09-23T02:05:33.423Z,14.55
2022-09-23T02:08:07.212Z,16.27
2022-09-23T02:10:44.603Z,15.67
2022-09-23T02:13:25.995Z,14.88
2022-09-23T02:15:57.396Z,16.58
2022-09-23T02:18:34.261Z,13.75
2022-09-23T02:21:06.189Z,15.10
2022-09-23T02:23:40.798Z,14.95
2022-09-23T02:29:14.080Z,16.58
2022-09-23T02:32:08.340Z,13.23
2022-09-23T02:35:10.778Z,14.85
2022-09-23T02:37:59.315Z,15.70
2022-09-23T02:40:52.144Z,14.68
2022-09-23T02:43:35.517Z,14.15
2022-09-23T02:46:04.890Z,15.35
2022-09-23T02:48:46.414Z,15.60
2022-09-23T02:51:13.903Z,17.25
2022-09-23T02:53:41.540Z,16.00
2022-09-23T02:56:17.311Z,13.40
2022-09-23T02:58:46.985Z,13.80
2022-09-23T03:01:46.817Z,15.85
2022-09-23T03:04:26.393Z,15.88
2022-09-23T03:07:33.162Z,14.70
2022-09-23T03:10:30.148Z,14.10
2022-09-23T03:13:26.137Z,14.05
2022-09-23T03:16:15.323Z,13.77
2022-09-23T03:19:04.056Z,15.20
2022-09-23T03:21:31.344Z,13.82
2022-09-23T03:24:02.792Z,14.88
2022-09-23T03:26:33.220Z,16.92
2022-09-23T03:29:04.398Z,14.45
2022-09-23T03:31:33.921Z,14.82
2022-09-23T03:34:06.066Z,13.68
2022-09-23T03:36:51.696Z,16.88
2022-09-23T03:39:40.891Z,12.93
2022-09-23T03:42:18.020Z,14.98
2022-09-23T03:44:47.273Z,16.77
2022-09-23T03:47:16.520Z,16.48
2022-09-23T03:49:48.499Z,16.15
2022-09-23T03:52:17.940Z,17.45
2022-09-23T03:54:45.274Z,14.45
2022-09-23T03:57:13.332Z,16.63
2022-09-23T03:59:40.704Z,15.38
2022-09-23T04:02:08.600Z,16.67
2022-09-23T04:04:40.161Z,16.80
2022-09-23T04:07:07.475Z,17.35
2022-09-23T04:09:35.204Z,17.00
2022-09-23T04:12:03.655Z,15.15
2022-09-23T04:14:31.612Z,15.40
2022-09-23T04:16:58.919Z,18.05
2022-09-23T04:19:26.231Z,15.93
2022-09-23T04:21:53.540Z,15.55
2022-09-23T04:24:21.727Z,16.23
2022-09-23T04:26:53.846Z,16.65
2022-09-23T04:29:21.888Z,15.82
2022-09-23T04:31:50.194Z,15.07
2022-09-23T04:34:18.233Z,16.42
2022-09-23T04:36:46.517Z,16.35
2022-09-23T04:39:15.076Z,17.48
2022-09-23T04:41:43.403Z,14.40
2022-09-23T04:44:12.629Z,19.45
2022-09-23T04:46:41.093Z,14.80
2022-09-23T04:49:08.600Z,15.23
2022-09-23T04:51:36.083Z,12.93
2022-09-23T04:54:03.449Z,17.33
2022-09-23T04:56:34.020Z,14.65
2022-09-23T04:59:04.082Z,16.95
2022-09-23T05:01:34.444Z,14.48
2022-09-23T05:04:05.201Z,15.10
2022-09-23T05:06:34.806Z,14.25
2022-09-23T05:09:04.884Z,15.82
2022-09-23T05:11:32.616Z,14.52
2022-09-23T05:14:00.248Z,14.85
2022-09-23T05:16:27.776Z,15.95
2022-09-23T05:18:55.259Z,18.10
2022-09-23T05:21:24.490Z,16.67
2022-09-23T05:23:54.939Z,16.55
2022-09-23T05:26:25.348Z,15.43
2022-09-23T05:28:54.310Z,14.35
2022-09-23T05:31:24.031Z,16.33
2022-09-23T05:34:00.400Z,15.73
2022-09-23T05:36:33.093Z,11.48
2022-09-23T05:39:04.287Z,13.98
2022-09-23T05:41:31.607Z,15.55
2022-09-23T05:43:59.789Z,16.90
2022-09-23T05:46:29.419Z,16.98
2022-09-23T05:49:02.193Z,14.32
2022-09-23T05:51:31.491Z,13.35
2022-09-23T05:54:00.163Z,15.15
2022-09-23T05:56:28.633Z,16.40
2022-09-23T05:58:58.341Z,14.13
2022-09-23T06:01:28.383Z,15.90
2022-09-23T06:03:57.566Z,15.77
2022-09-23T06:06:29.443Z,15.80
2022-09-23T06:08:57.003Z,18.65
2022-09-23T06:11:24.335Z,15.90
2022-09-23T06:13:55.945Z,16.05
2022-09-23T06:16:23.320Z,17.75
2022-09-23T06:18:50.702Z,17.60
2022-09-23T06:21:18.359Z,13.52
2022-09-23T06:23:46.186Z,14.00
2022-09-23T06:26:15.457Z,15.75
2022-09-23T06:28:44.582Z,13.82
2022-09-23T06:31:15.323Z,14.05
2022-09-23T06:33:44.849Z,16.83
2022-09-23T06:36:24.260Z,14.10
2022-09-23T06:38:58.303Z,12.95
2022-09-23T06:41:25.798Z,14.50
2022-09-23T06:43:58.493Z,15.15
2022-09-23T06:46:27.951Z,14.13
2022-09-23T06:48:55.299Z,15.38
2022-09-23T06:51:22.727Z,15.93
2022-09-23T06:53:50.198Z,16.75
2022-09-23T06:56:19.830Z,15.85
2022-09-23T06:58:47.649Z,15.20
2022-09-23T07:01:17.382Z,14.10
2022-09-23T07:03:47.306Z,16.48
2022-09-23T07:06:14.933Z,16.73
2022-09-23T07:08:47.403Z,15.02
2022-09-23T07:11:15.985Z,16.73
2022-09-23T07:13:43.417Z,12.95
2022-09-23T07:16:11.675Z,15.02
2022-09-23T07:18:39.520Z,16.85
2022-09-23T07:21:10.293Z,14.60
2022-09-23T07:23:37.819Z,15.63
2022-09-23T07:26:05.887Z,18.13
2022-09-23T07:28:33.373Z,16.70
2022-09-23T07:31:12.021Z,15.75
2022-09-23T07:33:43.768Z,14.00
2022-09-23T07:36:17.376Z,15.93
2022-09-23T07:38:46.584Z,15.90
2022-09-23T07:41:16.958Z,14.68
2022-09-23T07:43:45.359Z,12.88
2022-09-23T07:46:16.844Z,12.23
2022-09-23T07:48:45.793Z,13.55
2022-09-23T07:51:36.573Z,16.00
2022-09-23T07:54:11.190Z,12.48
2022-09-23T07:56:39.053Z,12.13
2022-09-23T07:59:09.158Z,12.00
2022-09-23T08:01:39.303Z,11.55
2022-09-23T08:04:29.733Z,16.95
2022-09-23T08:06:59.362Z,13.50
2022-09-23T08:09:35.396Z,12.82
2022-09-23T08:12:02.723Z,13.77
2022-09-23T08:14:30.055Z,11.63
2022-09-23T08:16:57.879Z,12.27
2022-09-23T08:19:26.379Z,14.73
2022-09-23T08:21:55.701Z,10.30
2022-09-23T08:24:24.187Z,12.40
2022-09-23T08:26:55.771Z,10.18
2022-09-23T08:29:24.879Z,10.00
2022-09-23T08:31:52.779Z,10.65
2022-09-23T08:34:22.688Z,11.70
2022-09-23T08:36:52.353Z,13.13
2022-09-23T08:39:20.513Z,12.98
2022-09-23T08:41:59.087Z,10.48
2022-09-23T08:44:45.352Z,11.48
2022-09-23T08:47:12.655Z,10.35
2022-09-23T08:49:53.134Z,11.75
2022-09-23T08:52:43.026Z,9.35
2022-09-23T08:55:15.009Z,10.10
2022-09-23T08:58:25.229Z,9.00
2022-09-23T09:01:23.000Z,14.73
2022-09-23T09:04:02.644Z,14.60
2022-09-23T09:06:53.039Z,9.32
2022-09-23T09:09:21.476Z,10.43
2022-09-23T09:11:51.700Z,9.35
2022-09-23T09:14:25.022Z,9.88
2022-09-23T09:17:01.205Z,10.27
2022-09-23T09:19:52.572Z,10.45
2022-09-23T09:22:24.982Z,8.40
2022-09-23T09:24:57.508Z,11.00
2022-09-23T09:27:25.037Z,9.10
2022-09-23T09:29:54.756Z,9.27
2022-09-23T09:32:47.364Z,9.15
2022-09-23T09:35:36.735Z,10.68
2022-09-23T09:38:05.827Z,11.50
2022-09-23T09:40:35.139Z,12.88
2022-09-23T09:43:05.966Z,10.25
2022-09-23T09:46:12.174Z,9.20
2022-09-23T09:48:53.739Z,10.20
2022-09-23T09:51:27.726Z,9.60
2022-09-23T09:53:56.912Z,9.20
2022-09-23T09:56:44.551Z,11.98
2022-09-23T09:59:21.043Z,10.65
2022-09-23T10:01:48.612Z,8.65
2022-09-23T10:04:29.711Z,11.20
2022-09-23T10:07:14.759Z,12.45
2022-09-23T10:09:50.178Z,10.93
2022-09-23T10:12:22.580Z,12.02
2022-09-23T10:14:52.005Z,10.10
2022-09-23T10:17:34.019Z,11.43
2022-09-23T10:20:08.259Z,10.25
2022-09-23T10:22:42.517Z,10.75
2022-09-23T10:25:19.225Z,9.38
2022-09-23T10:27:47.047Z,9.52
2022-09-23T10:30:22.073Z,11.85
2022-09-23T10:32:50.926Z,10.63
2022-09-23T10:35:22.596Z,9.55
2022-09-23T10:37:55.393Z,9.55
2022-09-23T10:40:55.041Z,9.43
2022-09-23T10:44:06.025Z,10.00
2022-09-23T10:46:47.051Z,11.80
2022-09-23T10:49:33.103Z,12.30
2022-09-23T10:52:06.761Z,7.88
2022-09-23T10:54:37.336Z,12.67
2022-09-23T10:57:42.503Z,9.52
2022-09-23T11:00:32.606Z,10.57
2022-09-23T11:03:32.208Z,9.77
2022-09-23T11:06:00.787Z,10.73
2022-09-23T11:08:55.578Z,13.57
2022-09-23T11:11:34.061Z,10.75
2022-09-23T11:14:40.955Z,10.27
2022-09-23T11:17:20.156Z,9.85
2022-09-23T11:20:15.510Z,9.85
2022-09-23T11:22:43.934Z,11.77
2022-09-23T11:25:23.930Z,8.65
2022-09-23T11:27:59.417Z,8.00
2022-09-23T11:30:41.022Z,9.00
2022-09-23T11:33:22.777Z,9.50
2022-09-23T11:36:12.103Z,7.10
2022-09-23T11:38:47.517Z,7.38
2022-09-23T11:41:46.860Z,9.15
2022-09-23T11:44:24.473Z,7.53
2022-09-23T11:47:42.383Z,6.82
2022-09-23T11:50:25.823Z,9.15
2022-09-23T11:53:13.148Z,8.65
2022-09-23T11:55:57.569Z,9.80
2022-09-23T11:58:35.254Z,6.40
2022-09-23T12:01:37.097Z,7.43
2022-09-23T12:04:34.642Z,7.18
2022-09-23T12:07:14.883Z,9.40
2022-09-23T12:10:05.426Z,6.20
2022-09-23T12:12:38.835Z,8.18
2022-09-23T12:15:16.894Z,9.95
2022-09-23T12:18:03.998Z,8.55
2022-09-23T12:21:05.555Z,9.73
2022-09-23T12:24:03.175Z,7.70
2022-09-23T12:26:32.643Z,6.20
2022-09-23T12:29:03.425Z,6.50
2022-09-23T12:31:33.878Z,5.70
2022-09-23T12:34:26.312Z,8.85
2022-09-23T12:36:54.907Z,10.98
2022-09-23T12:39:32.887Z,7.88
2022-09-23T12:42:03.733Z,7.53
2022-09-23T12:44:41.990Z,11.32
2022-09-23T12:47:21.001Z,11.73
2022-09-23T12:49:49.517Z,8.23
2022-09-23T12:52:16.789Z,8.95
2022-09-23T12:54:46.629Z,6.78
2022-09-23T12:57:35.395Z,7.07
2022-09-23T13:00:12.969Z,7.05
2022-09-23T13:03:12.232Z,8.52
2022-09-23T13:06:16.971Z,8.35
2022-09-23T13:08:46.977Z,8.90
2022-09-23T13:11:33.324Z,8.70
2022-09-23T13:14:04.936Z,8.23
2022-09-23T13:16:45.568Z,8.40
2022-09-23T13:19:28.333Z,8.35
2022-09-23T13:22:06.689Z,9.27
2022-09-23T13:24:43.008Z,8.52
2022-09-23T13:27:29.286Z,8.15
2022-09-23T13:29:59.174Z,8.13
2022-09-23T13:32:39.866Z,10.50
2022-09-23T13:35:18.712Z,11.05
2022-09-23T13:37:50.025Z,9.88
2022-09-23T13:40:27.185Z,10.60
2022-09-23T13:43:06.523Z,11.88
2022-09-23T13:45:41.369Z,10.82
2022-09-23T13:48:13.291Z,12.50
2022-09-23T13:50:47.676Z,10.90
2022-09-23T13:53:29.157Z,10.80
2022-09-23T13:56:01.498Z,11.35
2022-09-23T13:58:30.733Z,10.75
2022-09-23T14:00:58.515Z,9.77
2022-09-23T14:03:36.770Z,10.25
2022-09-23T14:06:12.970Z,13.52
2022-09-23T14:08:44.525Z,13.93
2022-09-23T14:11:21.417Z,11.90
2022-09-23T14:13:54.933Z,11.65
2022-09-23T14:16:28.225Z,9.40
2022-09-23T14:19:00.329Z,9.80
2022-09-23T14:21:36.975Z,10.68
2022-09-23T14:24:10.449Z,14.90
2022-09-23T14:26:38.670Z,10.60
2022-09-23T14:29:12.534Z,9.70
2022-09-23T14:31:40.582Z,11.98
2022-09-23T14:34:40.041Z,18.95
2022-09-23T14:37:47.811Z,11.32
2022-09-23T14:40:34.754Z,9.93
2022-09-23T14:43:25.661Z,10.80
2022-09-23T14:45:58.694Z,12.65
2022-09-23T14:48:29.476Z,11.88
2022-09-23T14:51:02.506Z,8.75
2022-09-23T14:53:48.788Z,9.27
2022-09-23T14:56:25.467Z,8.98
2022-09-23T14:58:57.906Z,9.07
2022-09-23T15:01:31.390Z,11.68
2022-09-23T15:04:30.364Z,8.43
2022-09-23T15:07:14.890Z,7.63
2022-09-23T15:09:44.330Z,10.32
2022-09-23T15:12:20.613Z,10.27
2022-09-23T15:14:56.733Z,12.35
2022-09-23T15:17:24.080Z,10.75
2022-09-23T15:19:56.664Z,10.35
2022-09-23T15:22:25.559Z,8.30
2022-09-23T15:24:54.812Z,8.50
2022-09-23T15:27:32.064Z,10.35
2022-09-23T15:30:19.586Z,8.90
2022-09-23T15:32:47.355Z,10.32
2022-09-23T15:35:18.685Z,10.60
2022-09-23T15:37:48.539Z,7.63
2022-09-23T15:40:26.266Z,9.40
2022-09-23T15:42:57.134Z,11.35
2022-09-23T15:45:46.491Z,11.60
2022-09-23T15:48:16.595Z,9.70
2022-09-23T15:50:46.616Z,8.60
2022-09-23T15:53:34.226Z,9.68
2022-09-23T15:56:02.089Z,9.63
2022-09-23T15:58:29.680Z,11.70
2022-09-23T16:00:57.466Z,13.00
2022-09-23T16:03:28.590Z,12.63
2022-09-23T16:06:00.977Z,9.00
2022-09-23T16:08:29.446Z,11.43
2022-09-23T16:10:56.823Z,12.27
2022-09-23T16:13:24.246Z,11.88
2022-09-23T16:15:51.609Z,10.05
2022-09-23T16:18:18.958Z,12.88
2022-09-23T16:20:47.663Z,14.07
2022-09-23T16:23:38.854Z,12.63
2022-09-23T16:26:13.924Z,11.38
2022-09-23T16:28:42.504Z,13.00
2022-09-23T16:31:11.256Z,12.95
2022-09-23T16:33:39.027Z,12.23
2022-09-23T16:36:14.221Z,12.02
2022-09-23T16:38:42.406Z,17.08
2022-09-23T16:41:11.273Z,12.90
2022-09-23T16:43:41.450Z,15.43
2022-09-23T16:46:12.201Z,12.52
2022-09-23T16:48:40.846Z,12.30
2022-09-23T16:51:13.149Z,15.35
2022-09-23T16:53:40.501Z,12.57
2022-09-23T16:56:09.810Z,15.57
2022-09-23T16:58:38.268Z,18.08
2022-09-23T17:01:25.732Z,14.57
2022-09-23T17:03:53.288Z,11.65
2022-09-23T17:06:21.133Z,18.65
2022-09-23T17:08:49.301Z,14.65
2022-09-23T17:11:17.587Z,17.60
2022-09-23T17:13:45.298Z,14.80
2022-09-23T17:16:29.403Z,15.18
2022-09-23T17:18:57.488Z,22.15
2022-09-23T17:21:26.854Z,18.40
2022-09-23T17:23:55.252Z,19.33
2022-09-23T17:26:25.223Z,15.13
2022-09-23T17:28:54.655Z,12.93
2022-09-23T17:31:23.416Z,15.65
2022-09-23T17:33:51.825Z,16.30
2022-09-23T17:36:20.491Z,18.40
2022-09-23T17:38:49.122Z,17.08
2022-09-23T17:41:18.100Z,16.95
2022-09-23T17:43:46.760Z,16.75
2022-09-23T17:46:18.151Z,15.73
2022-09-23T17:48:46.640Z,16.50
2022-09-23T17:51:16.717Z,16.02
2022-09-23T17:53:46.503Z,16.27
2022-09-23T17:56:18.217Z,15.35
2022-09-23T17:58:47.454Z,16.85
2022-09-23T18:01:33.036Z,16.42
2022-09-23T18:04:02.055Z,14.75
2022-09-23T18:06:35.627Z,15.23
2022-09-23T18:09:05.396Z,18.23
2022-09-23T18:11:36.155Z,15.32
2022-09-23T18:14:06.671Z,14.70
2022-09-23T18:16:39.823Z,21.48
2022-09-23T18:19:10.607Z,16.17
2022-09-23T18:21:40.975Z,18.58
2022-09-23T18:26:59.640Z,18.73
2022-09-23T18:29:27.071Z,18.85
2022-09-23T18:31:54.542Z,18.48
2022-09-23T18:34:22.158Z,15.60
2022-09-23T18:36:49.572Z,18.23
2022-09-23T18:39:17.210Z,18.40
2022-09-23T18:41:45.953Z,17.58
2022-09-23T18:44:13.255Z,16.98
2022-09-23T18:46:40.553Z,19.88
2022-09-23T18:49:27.338Z,20.20
2022-09-23T18:51:56.966Z,19.02
2022-09-23T18:54:27.316Z,24.20
2022-09-23T18:56:55.623Z,16.45
2022-09-23T18:59:26.227Z,19.25
2022-09-23T19:01:56.896Z,20.33
2022-09-23T19:04:26.228Z,21.33
2022-09-23T19:06:56.312Z,17.45
2022-09-23T19:09:24.180Z,20.35
2022-09-23T19:11:52.505Z,23.77
2022-09-23T19:14:20.042Z,21.95
2022-09-23T19:16:49.239Z,27.50
2022-09-23T19:19:16.967Z,26.40
2022-09-23T19:21:44.473Z,23.80
2022-09-23T19:24:15.658Z,23.42
2022-09-23T19:26:44.035Z,21.77
2022-09-23T19:29:15.737Z,18.98
2022-09-23T19:31:43.958Z,20.85
2022-09-23T19:34:17.714Z,22.45
2022-09-23T19:36:47.058Z,23.63
2022-09-23T19:39:26.251Z,19.40
2022-09-23T19:41:55.681Z,20.30
2022-09-23T19:44:25.097Z,22.58
2022-09-23T19:46:56.491Z,20.63
2022-09-23T19:49:25.631Z,20.73
2022-09-23T19:51:56.077Z,24.48
2022-09-23T19:54:26.589Z,23.08
2022-09-23T19:56:54.250Z,29.05
2022-09-23T19:59:21.626Z,22.23
2022-09-23T20:01:49.444Z,25.63
2022-09-23T20:04:17.153Z,22.60
2022-09-23T20:06:46.009Z,25.30
2022-09-23T20:09:13.677Z,21.48
2022-09-23T20:11:43.168Z,23.55
2022-09-23T20:14:11.029Z,26.35
2022-09-23T20:16:38.736Z,27.23
2022-09-23T20:19:06.642Z,24.63
2022-09-23T20:21:35.364Z,25.88
2022-09-23T20:24:07.614Z,24.92
2022-09-23T20:26:53.932Z,25.92
2022-09-23T20:29:21.451Z,28.85
2022-09-23T20:31:49.056Z,23.60
2022-09-23T20:34:16.538Z,25.92
2022-09-23T20:36:44.180Z,23.73
2022-09-23T20:39:11.545Z,21.15
2022-09-23T20:41:39.383Z,20.00
2022-09-23T20:44:12.397Z,20.40
2022-09-23T20:46:48.186Z,19.67
2022-09-23T20:49:17.810Z,23.33
2022-09-23T20:51:47.587Z,18.48
2022-09-23T20:54:16.263Z,17.23
2022-09-23T20:56:43.640Z,19.45
2022-09-23T20:59:14.750Z,18.88
2022-09-23T21:01:42.284Z,19.20
2022-09-23T21:04:09.836Z,16.73
2022-09-23T21:06:37.862Z,15.75
2022-09-23T21:09:06.204Z,20.42
2022-09-23T21:11:33.860Z,20.70
2022-09-23T21:14:02.077Z,19.48
2022-09-23T21:16:30.574Z,20.23
2022-09-23T21:18:58.443Z,20.13
2022-09-23T21:21:26.233Z,23.30
2022-09-23T21:23:53.650Z,22.25
2022-09-23T21:26:26.021Z,18.23
2022-09-23T21:28:57.602Z,19.40
2022-09-23T21:31:33.816Z,23.13
2022-09-23T21:34:04.590Z,18.92
2022-09-23T21:36:34.624Z,21.58
2022-09-23T21:39:03.051Z,22.27
2022-09-23T21:41:31.280Z,21.73
2022-09-23T21:44:00.278Z,21.95
2022-09-23T21:46:28.940Z,24.85
2022-09-23T21:48:57.477Z,22.13
2022-09-23T21:51:30.524Z,25.77
2022-09-23T21:53:58.606Z,25.15
2022-09-23T21:56:28.615Z,27.25
2022-09-23T21:58:57.808Z,25.90
2022-09-23T22:01:26.849Z,26.85
2022-09-23T22:03:59.403Z,24.73
2022-09-23T22:06:28.581Z,29.60
2022-09-23T22:08:59.746Z,29.20
2022-09-23T22:11:50.732Z,25.00
2022-09-23T22:14:19.761Z,23.70
2022-09-23T22:16:47.159Z,22.38
2022-09-23T22:19:15.564Z,21.42
2022-09-23T22:21:45.344Z,19.60
2022-09-23T22:24:13.027Z,21.38
2022-09-23T22:26:44.491Z,23.35
2022-09-23T22:29:32.849Z,21.02
2022-09-23T22:32:20.642Z,20.67
2022-09-23T22:34:51.445Z,21.52
2022-09-23T22:37:39.587Z,19.35
2022-09-23T22:40:10.460Z,20.40
2022-09-23T22:42:39.384Z,23.73
2022-09-23T22:45:07.909Z,23.45
2022-09-23T22:47:37.791Z,25.67
2022-09-23T22:50:07.035Z,19.73
2022-09-23T22:52:35.257Z,23.73
2022-09-23T22:55:03.687Z,26.00
2022-09-23T22:57:31.331Z,23.98
2022-09-23T22:59:58.699Z,28.17
2022-09-23T23:02:26.100Z,28.55
2022-09-23T23:04:56.107Z,25.83
2022-09-23T23:07:23.407Z,27.65
2022-09-23T23:09:51.933Z,26.90
2022-09-23T23:12:20.614Z,27.70
2022-09-23T23:14:49.209Z,27.35
2022-09-23T23:17:17.120Z,31.27
2022-09-23T23:19:45.049Z,28.38
2022-09-23T23:22:12.300Z,28.13
2022-09-23T23:24:39.903Z,29.42
2022-09-23T23:27:07.249Z,30.38
2022-09-23T23:29:34.602Z,27.45
2022-09-23T23:32:02.306Z,30.67
2022-09-23T23:34:29.671Z,27.92
2022-09-23T23:36:56.976Z,31.25
2022-09-23T23:39:25.242Z,24.83
2022-09-23T23:41:54.871Z,27.13
2022-09-23T23:44:27.049Z,27.70
2022-09-23T23:46:54.916Z,26.15
2022-09-23T23:49:22.781Z,24.38
2022-09-23T23:51:50.169Z,21.50
2022-09-23T23:54:17.562Z,21.10
2022-09-23T23:56:45.053Z,23.20
2022-09-23T23:59:12.449Z,22.40
